
Distance (Route):
Temperature : -41.5°C
Humidity : 0%
Pressure : 0hPa| Receiver | Frames | First received | Last received |
|---|---|---|---|
| WB7NNF | 365 | 2026-09-01 17:23:19 | 2026-09-01 19:44:43 |
| Receiver | Date | Latitude | Longitude | Direction | Speed | Altitude | Climb | Temperature | Humidity | Pressure | Voltage | Killtimer | Uptime | BKT | XDATA |
|---|---|---|---|---|---|---|---|---|---|---|---|---|---|---|---|
| WB7NNF | 2026-09-01 19:44:43 | 48.54726 | -117.19699 | 12° | 75km/h | 9590m | -3.6m/s | -41.5°C | 0% | 0hPa | 0V | 00:00:00 | 00:00:00 | 00:00:00 | |
| WB7NNF | 2026-09-01 19:43:48 | 48.53762 | -117.20156 | 8° | 75km/h | 9765m | -3.3m/s | -42.9°C | 0% | 0hPa | 0V | 00:00:00 | 00:00:00 | 00:00:00 | |
| WB7NNF | 2026-09-01 19:43:20 | 48.53274 | -117.20366 | 8° | 75km/h | 9858m | -3.0m/s | -43.6°C | 0% | 0hPa | 0V | 00:00:00 | 00:00:00 | 00:00:00 | |
| WB7NNF | 2026-09-01 19:42:35 | 48.52507 | -117.20681 | 6° | 71km/h | 10001m | -3.2m/s | -44.7°C | 0% | 0hPa | 0V | 00:00:00 | 00:00:00 | 00:00:00 | |
| WB7NNF | 2026-09-01 19:41:42 | 48.51563 | -117.21044 | 12° | 84km/h | 10162m | -3.2m/s | -46.2°C | 0% | 0hPa | 0V | 00:00:00 | 00:00:00 | 00:00:00 | |
| WB7NNF | 2026-09-01 19:41:03 | 48.50875 | -117.21262 | 17° | 78km/h | 10290m | -3.2m/s | -47.2°C | 0% | 0hPa | 0V | 00:00:00 | 00:00:00 | 00:00:00 | |
| WB7NNF | 2026-09-01 19:40:41 | 48.50455 | -117.21354 | 2° | 69km/h | 10358m | -3.5m/s | -47.6°C | 0% | 0hPa | 0V | 00:00:00 | 00:00:00 | 00:00:00 | |
| WB7NNF | 2026-09-01 19:40:02 | 48.49709 | -117.21531 | 4° | 88km/h | 10488m | -3.6m/s | -48.8°C | 0% | 0hPa | 0V | 00:00:00 | 00:00:00 | 00:00:00 | |
| WB7NNF | 2026-09-01 19:38:10 | 48.47383 | -117.21807 | 358° | 91km/h | 10887m | -3.9m/s | -52.1°C | 0% | 0hPa | 0V | 00:00:00 | 00:00:00 | 00:00:00 | |
| WB7NNF | 2026-09-01 19:37:42 | 48.46786 | -117.21869 | 357° | 82km/h | 10989m | -3.6m/s | -52.7°C | 0% | 0hPa | 0V | 00:00:00 | 00:00:00 | 00:00:00 | |
| WB7NNF | 2026-09-01 19:37:14 | 48.46204 | -117.21953 | 358° | 89km/h | 11090m | -3.7m/s | -53.5°C | 0% | 0hPa | 0V | 00:00:00 | 00:00:00 | 00:00:00 | |
| WB7NNF | 2026-09-01 19:36:46 | 48.45570 | -117.22052 | 359° | 91km/h | 11195m | -3.8m/s | -54.0°C | 0% | 0hPa | 0V | 00:00:00 | 00:00:00 | 00:00:00 | |
| WB7NNF | 2026-09-01 19:36:16 | 48.44840 | -117.22180 | 7° | 82km/h | 11312m | -3.6m/s | -54.9°C | 0% | 0hPa | 0V | 00:00:00 | 00:00:00 | 00:00:00 | |
| WB7NNF | 2026-09-01 19:35:48 | 48.44192 | -117.22313 | 4° | 82km/h | 11414m | -3.6m/s | -55.4°C | 0% | 0hPa | 0V | 00:00:00 | 00:00:00 | 00:00:00 | |
| WB7NNF | 2026-09-01 19:35:27 | 48.43708 | -117.22426 | 9° | 100km/h | 11495m | -3.5m/s | -55.7°C | 0% | 0hPa | 0V | 00:00:00 | 00:00:00 | 00:00:00 | |
| WB7NNF | 2026-09-01 19:35:05 | 48.43255 | -117.22474 | 8° | 71km/h | 11573m | -3.5m/s | -56.0°C | 0% | 0hPa | 0V | 00:00:00 | 00:00:00 | 00:00:00 | |
| WB7NNF | 2026-09-01 19:34:44 | 48.42804 | -117.22589 | 7° | 99km/h | 11653m | -3.7m/s | -56.4°C | 0% | 0hPa | 0V | 00:00:00 | 00:00:00 | 00:00:00 | |
| WB7NNF | 2026-09-01 19:33:56 | 48.41788 | -117.22713 | 3° | 69km/h | 11831m | -3.6m/s | -57.4°C | 0% | 0hPa | 0V | 00:00:00 | 00:00:00 | 00:00:00 | |
| WB7NNF | 2026-09-01 19:33:28 | 48.41217 | -117.22790 | 361° | 66km/h | 11936m | -3.6m/s | -57.9°C | 0% | 0hPa | 0V | 00:00:00 | 00:00:00 | 00:00:00 | |
| WB7NNF | 2026-09-01 19:33:01 | 48.40656 | -117.22834 | 3° | 66km/h | 12037m | -3.6m/s | -58.3°C | 0% | 0hPa | 0V | 00:00:00 | 00:00:00 | 00:00:00 | |
| WB7NNF | 2026-09-01 19:32:34 | 48.40111 | -117.22879 | 359° | 66km/h | 12137m | -3.8m/s | -57.6°C | 0% | 0hPa | 0V | 00:00:00 | 00:00:00 | 00:00:00 | |
| WB7NNF | 2026-09-01 19:32:06 | 48.39553 | -117.22963 | 4° | 69km/h | 12240m | -3.9m/s | -56.7°C | 0% | 0hPa | 0V | 00:00:00 | 00:00:00 | 00:00:00 | |
| WB7NNF | 2026-09-01 19:31:40 | 48.38985 | -117.23068 | 360° | 71km/h | 12345m | -4.0m/s | -57.0°C | 0% | 0hPa | 0V | 00:00:00 | 00:00:00 | 00:00:00 | |
| WB7NNF | 2026-09-01 19:31:19 | 48.38549 | -117.23163 | 7° | 99km/h | 12430m | -3.8m/s | -57.2°C | 0% | 0hPa | 0V | 00:00:00 | 00:00:00 | 00:00:00 | |
| WB7NNF | 2026-09-01 19:30:57 | 48.38112 | -117.23227 | 12° | 68km/h | 12516m | -3.7m/s | -57.0°C | 0% | 0hPa | 0V | 00:00:00 | 00:00:00 | 00:00:00 | |
| WB7NNF | 2026-09-01 19:30:36 | 48.37702 | -117.23355 | 4° | 84km/h | 12605m | -4.3m/s | -56.4°C | 0% | 0hPa | 0V | 00:00:00 | 00:00:00 | 00:00:00 | |
| WB7NNF | 2026-09-01 19:30:14 | 48.37342 | -117.23418 | 21° | 64km/h | 12692m | -3.9m/s | -55.1°C | 0% | 0hPa | 0V | 00:00:00 | 00:00:00 | 00:00:00 | |
| WB7NNF | 2026-09-01 19:29:53 | 48.36973 | -117.23492 | 357° | 68km/h | 12780m | -4.1m/s | -54.7°C | 0% | 0hPa | 0V | 00:00:00 | 00:00:00 | 00:00:00 | |
| WB7NNF | 2026-09-01 19:29:33 | 48.36605 | -117.23599 | 22° | 82km/h | 12869m | -4.2m/s | -54.0°C | 0% | 0hPa | 0V | 00:00:00 | 00:00:00 | 00:00:00 | |
| WB7NNF | 2026-09-01 19:29:12 | 48.36263 | -117.23699 | 3° | 55km/h | 12952m | -4.0m/s | -53.1°C | 0% | 0hPa | 0V | 00:00:00 | 00:00:00 | 00:00:00 | |
| WB7NNF | 2026-09-01 19:28:52 | 48.35944 | -117.23858 | 31° | 75km/h | 13041m | -4.3m/s | -52.8°C | 0% | 0hPa | 0V | 00:00:00 | 00:00:00 | 00:00:00 | |
| WB7NNF | 2026-09-01 19:28:31 | 48.35614 | -117.24027 | 7° | 58km/h | 13124m | -4.1m/s | -52.9°C | 0% | 0hPa | 0V | 00:00:00 | 00:00:00 | 00:00:00 | |
| WB7NNF | 2026-09-01 19:28:11 | 48.35316 | -117.24205 | 24° | 77km/h | 13214m | -4.3m/s | -53.5°C | 0% | 0hPa | 0V | 00:00:00 | 00:00:00 | 00:00:00 | |
| WB7NNF | 2026-09-01 19:27:50 | 48.35006 | -117.24317 | 22° | 44km/h | 13306m | -4.0m/s | -53.7°C | 0% | 0hPa | 0V | 00:00:00 | 00:00:00 | 00:00:00 | |
| WB7NNF | 2026-09-01 19:27:29 | 48.34710 | -117.24443 | 11° | 78km/h | 13394m | -4.4m/s | -54.3°C | 0% | 0hPa | 0V | 00:00:00 | 00:00:00 | 00:00:00 | |
| WB7NNF | 2026-09-01 19:27:09 | 48.34391 | -117.24523 | 23° | 49km/h | 13484m | -4.2m/s | -54.1°C | 0% | 0hPa | 0V | 00:00:00 | 00:00:00 | 00:00:00 | |
| WB7NNF | 2026-09-01 19:26:48 | 48.34061 | -117.24645 | 8° | 82km/h | 13572m | -4.4m/s | -53.9°C | 0% | 0hPa | 0V | 00:00:00 | 00:00:00 | 00:00:00 | |
| WB7NNF | 2026-09-01 19:26:28 | 48.33723 | -117.24781 | 33° | 64km/h | 13664m | -4.5m/s | -53.5°C | 0% | 0hPa | 0V | 00:00:00 | 00:00:00 | 00:00:00 | |
| WB7NNF | 2026-09-01 19:26:04 | 48.33325 | -117.24973 | 19° | 55km/h | 13764m | -4.4m/s | -52.8°C | 0% | 0hPa | 0V | 00:00:00 | 00:00:00 | 00:00:00 | |
| WB7NNF | 2026-09-01 19:25:39 | 48.32879 | -117.25144 | 5° | 57km/h | 13872m | -4.2m/s | -52.1°C | 0% | 0hPa | 0V | 00:00:00 | 00:00:00 | 00:00:00 | |
| WB7NNF | 2026-09-01 19:25:13 | 48.32396 | -117.25339 | 27° | 58km/h | 13989m | -4.0m/s | -51.8°C | 0% | 0hPa | 0V | 00:00:00 | 00:00:00 | 00:00:00 | |
| WB7NNF | 2026-09-01 19:24:47 | 48.31997 | -117.25592 | 16° | 47km/h | 14100m | -4.8m/s | -51.0°C | 0% | 0hPa | 0V | 00:00:00 | 00:00:00 | 00:00:00 | |
| WB7NNF | 2026-09-01 19:24:23 | 48.31639 | -117.25842 | 7° | 53km/h | 14217m | -4.9m/s | -50.8°C | 0% | 0hPa | 0V | 00:00:00 | 00:00:00 | 00:00:00 | |
| WB7NNF | 2026-09-01 19:23:59 | 48.31280 | -117.26077 | 9° | 73km/h | 14334m | -5.0m/s | -51.4°C | 0% | 0hPa | 0V | 00:00:00 | 00:00:00 | 00:00:00 | |
| WB7NNF | 2026-09-01 19:23:38 | 48.30980 | -117.26262 | 42° | 57km/h | 14437m | -5.0m/s | -51.2°C | 0% | 0hPa | 0V | 00:00:00 | 00:00:00 | 00:00:00 | |
| WB7NNF | 2026-09-01 19:23:16 | 48.30647 | -117.26468 | 8° | 46km/h | 14555m | -5.3m/s | -51.5°C | 0% | 0hPa | 0V | 00:00:00 | 00:00:00 | 00:00:00 | |
| WB7NNF | 2026-09-01 19:22:55 | 48.30400 | -117.26640 | 29° | 71km/h | 14659m | -5.0m/s | -52.1°C | 0% | 0hPa | 0V | 00:00:00 | 00:00:00 | 00:00:00 | |
| WB7NNF | 2026-09-01 19:22:35 | 48.30145 | -117.26768 | 31° | 33km/h | 14767m | -5.1m/s | -52.2°C | 0% | 0hPa | 0V | 00:00:00 | 00:00:00 | 00:00:00 | |
| WB7NNF | 2026-09-01 19:22:10 | 48.29842 | -117.26964 | 22° | 33km/h | 14894m | -4.8m/s | -52.7°C | 0% | 0hPa | 0V | 00:00:00 | 00:00:00 | 00:00:00 | |
| WB7NNF | 2026-09-01 19:21:46 | 48.29547 | -117.27154 | 360° | 47km/h | 15010m | -4.5m/s | -53.2°C | 0% | 0hPa | 0V | 00:00:00 | 00:00:00 | 00:00:00 | |
| WB7NNF | 2026-09-01 19:21:22 | 48.29258 | -117.27299 | 349° | 42km/h | 15138m | -5.2m/s | -53.8°C | 0% | 0hPa | 0V | 00:00:00 | 00:00:00 | 00:00:00 | |
| WB7NNF | 2026-09-01 19:20:33 | 48.28593 | -117.27603 | 21° | 46km/h | 15383m | -6.3m/s | -53.8°C | 0% | 0hPa | 0V | 00:00:00 | 00:00:00 | 00:00:00 | |
| WB7NNF | 2026-09-01 19:20:09 | 48.28256 | -117.27859 | 19° | 71km/h | 15502m | -5.1m/s | -53.7°C | 0% | 0hPa | 0V | 00:00:00 | 00:00:00 | 00:00:00 | |
| WB7NNF | 2026-09-01 19:19:40 | 48.27875 | -117.28262 | 49° | 66km/h | 15646m | -5.0m/s | -53.5°C | 0% | 0hPa | 0V | 00:00:00 | 00:00:00 | 00:00:00 | |
| WB7NNF | 2026-09-01 19:19:12 | 48.27511 | -117.28744 | 39° | 60km/h | 15797m | -4.7m/s | -53.8°C | 0% | 0hPa | 0V | 00:00:00 | 00:00:00 | 00:00:00 | |
| WB7NNF | 2026-09-01 19:18:17 | 48.26850 | -117.29320 | 51° | 62km/h | 16106m | -6.1m/s | -53.2°C | 0% | 0hPa | 0V | 00:00:00 | 00:00:00 | 00:00:00 | |
| WB7NNF | 2026-09-01 19:17:56 | 48.26626 | -117.29568 | 27° | 57km/h | 16219m | -5.4m/s | -53.0°C | 0% | 0hPa | 0V | 00:00:00 | 00:00:00 | 00:00:00 | |
| WB7NNF | 2026-09-01 19:17:36 | 48.26377 | -117.29798 | 25° | 49km/h | 16338m | -5.2m/s | -53.4°C | 0% | 0hPa | 0V | 00:00:00 | 00:00:00 | 00:00:00 | |
| WB7NNF | 2026-09-01 19:17:15 | 48.26167 | -117.30030 | 24° | 47km/h | 16449m | -4.7m/s | -53.8°C | 0% | 0hPa | 0V | 00:00:00 | 00:00:00 | 00:00:00 | |
| WB7NNF | 2026-09-01 19:16:50 | 48.25922 | -117.30340 | 50° | 49km/h | 16592m | -5.5m/s | -53.6°C | 0% | 0hPa | 0V | 00:00:00 | 00:00:00 | 00:00:00 | |
| WB7NNF | 2026-09-01 19:16:29 | 48.25716 | -117.30598 | 31° | 38km/h | 16717m | -8.6m/s | -52.7°C | 0% | 0hPa | 0V | 00:00:00 | 00:00:00 | 00:00:00 | |
| WB7NNF | 2026-09-01 19:16:06 | 48.25428 | -117.30871 | 15° | 64km/h | 16873m | -6.1m/s | -52.6°C | 0% | 0hPa | 0V | 00:00:00 | 00:00:00 | 00:00:00 | |
| WB7NNF | 2026-09-01 19:15:42 | 48.25165 | -117.31087 | 31° | 60km/h | 17026m | -6.6m/s | -52.0°C | 0% | 0hPa | 0V | 00:00:00 | 00:00:00 | 00:00:00 | |
| WB7NNF | 2026-09-01 19:15:20 | 48.25001 | -117.31192 | 35° | 13km/h | 17159m | -7.0m/s | -52.0°C | 0% | 0hPa | 0V | 00:00:00 | 00:00:00 | 00:00:00 | |
| WB7NNF | 2026-09-01 19:14:59 | 48.24836 | -117.31303 | 357° | 33km/h | 17309m | -6.1m/s | -52.8°C | 0% | 0hPa | 0V | 00:00:00 | 00:00:00 | 00:00:00 | |
| WB7NNF | 2026-09-01 19:14:33 | 48.24574 | -117.31403 | 360° | 31km/h | 17479m | -6.6m/s | -53.1°C | 0% | 0hPa | 0V | 00:00:00 | 00:00:00 | 00:00:00 | |
| WB7NNF | 2026-09-01 19:14:11 | 48.24324 | -117.31567 | 44° | 57km/h | 17620m | -6.9m/s | -53.7°C | 0% | 0hPa | 0V | 00:00:00 | 00:00:00 | 00:00:00 | |
| WB7NNF | 2026-09-01 19:13:50 | 48.24027 | -117.31795 | 35° | 77km/h | 17761m | -6.9m/s | -53.8°C | 0% | 0hPa | 0V | 00:00:00 | 00:00:00 | 00:00:00 | |
| WB7NNF | 2026-09-01 19:13:29 | 48.23817 | -117.32015 | 26° | 60km/h | 17895m | -6.7m/s | -53.3°C | 0% | 0hPa | 0V | 00:00:00 | 00:00:00 | 00:00:00 | |
| WB7NNF | 2026-09-01 19:13:09 | 48.23630 | -117.32271 | 65° | 53km/h | 18033m | -7.5m/s | -53.2°C | 0% | 0hPa | 0V | 00:00:00 | 00:00:00 | 00:00:00 | |
| WB7NNF | 2026-09-01 19:12:48 | 48.23501 | -117.32480 | 40° | 47km/h | 18169m | -6.6m/s | -52.7°C | 0% | 0hPa | 0V | 00:00:00 | 00:00:00 | 00:00:00 | |
| WB7NNF | 2026-09-01 19:12:28 | 48.23382 | -117.32687 | 49° | 40km/h | 18310m | -6.5m/s | -52.3°C | 0% | 0hPa | 0V | 00:00:00 | 00:00:00 | 00:00:00 | |
| WB7NNF | 2026-09-01 19:12:06 | 48.23275 | -117.32834 | 59° | 24km/h | 18452m | -6.7m/s | -52.4°C | 0% | 0hPa | 0V | 00:00:00 | 00:00:00 | 00:00:00 | |
| WB7NNF | 2026-09-01 19:11:45 | 48.23117 | -117.32942 | 6° | 49km/h | 18598m | -6.4m/s | -53.1°C | 0% | 0hPa | 0V | 00:00:00 | 00:00:00 | 00:00:00 | |
| WB7NNF | 2026-09-01 19:11:23 | 48.22860 | -117.33203 | 62° | 42km/h | 18761m | -6.9m/s | -53.2°C | 0% | 0hPa | 0V | 00:00:00 | 00:00:00 | 00:00:00 | |
| WB7NNF | 2026-09-01 19:11:02 | 48.22695 | -117.33469 | 32° | 42km/h | 18903m | -6.9m/s | -52.6°C | 0% | 0hPa | 0V | 00:00:00 | 00:00:00 | 00:00:00 | |
| WB7NNF | 2026-09-01 19:10:38 | 48.22573 | -117.33768 | 355° | 7km/h | 19086m | -7.2m/s | -52.3°C | 0% | 0hPa | 0V | 00:00:00 | 00:00:00 | 00:00:00 | |
| WB7NNF | 2026-09-01 19:10:12 | 48.22432 | -117.33877 | 347° | 13km/h | 19273m | -7.3m/s | -52.6°C | 0% | 0hPa | 0V | 00:00:00 | 00:00:00 | 00:00:00 | |
| WB7NNF | 2026-09-01 19:09:46 | 48.22215 | -117.34007 | 7° | 18km/h | 19473m | -7.2m/s | -53.8°C | 0% | 0hPa | 0V | 00:00:00 | 00:00:00 | 00:00:00 | |
| WB7NNF | 2026-09-01 19:09:19 | 48.21994 | -117.34251 | 22° | 22km/h | 19681m | -7.6m/s | -52.3°C | 0% | 0hPa | 0V | 00:00:00 | 00:00:00 | 00:00:00 | |
| WB7NNF | 2026-09-01 19:08:53 | 48.21864 | -117.34497 | 351° | 26km/h | 19892m | -7.6m/s | -52.4°C | 0% | 0hPa | 0V | 00:00:00 | 00:00:00 | 00:00:00 | |
| WB7NNF | 2026-09-01 19:08:29 | 48.21702 | -117.34666 | 342° | 31km/h | 20099m | -8.5m/s | -53.1°C | 0% | 0hPa | 0V | 00:00:00 | 00:00:00 | 00:00:00 | |
| WB7NNF | 2026-09-01 19:08:03 | 48.21551 | -117.34822 | 347° | 31km/h | 20311m | -8.4m/s | -53.1°C | 0% | 0hPa | 0V | 00:00:00 | 00:00:00 | 00:00:00 | |
| WB7NNF | 2026-09-01 19:07:39 | 48.21437 | -117.34975 | 349° | 22km/h | 20515m | -8.5m/s | -52.9°C | 0% | 0hPa | 0V | 00:00:00 | 00:00:00 | 00:00:00 | |
| WB7NNF | 2026-09-01 19:07:16 | 48.21344 | -117.35218 | 156° | 2km/h | 20714m | -8.0m/s | -52.9°C | 0% | 0hPa | 0V | 00:00:00 | 00:00:00 | 00:00:00 | |
| WB7NNF | 2026-09-01 19:06:52 | 48.21353 | -117.35428 | 221° | 16km/h | 20924m | -8.8m/s | -52.1°C | 0% | 0hPa | 0V | 00:00:00 | 00:00:00 | 00:00:00 | |
| WB7NNF | 2026-09-01 19:06:30 | 48.21419 | -117.35520 | 216° | 29km/h | 21122m | -8.9m/s | -52.3°C | 0% | 0hPa | 0V | 00:00:00 | 00:00:00 | 00:00:00 | |
| WB7NNF | 2026-09-01 19:06:07 | 48.21476 | -117.35525 | 265° | 31km/h | 21332m | -8.8m/s | -52.4°C | 0% | 0hPa | 0V | 00:00:00 | 00:00:00 | 00:00:00 | |
| WB7NNF | 2026-09-01 19:05:45 | 48.21458 | -117.35477 | 263° | 33km/h | 21537m | -9.8m/s | -51.6°C | 0% | 0hPa | 0V | 00:00:00 | 00:00:00 | 00:00:00 | |
| WB7NNF | 2026-09-01 19:05:21 | 48.21420 | -117.35445 | 286° | 35km/h | 21763m | -9.7m/s | -50.8°C | 0% | 0hPa | 0V | 00:00:00 | 00:00:00 | 00:00:00 | |
| WB7NNF | 2026-09-01 19:05:00 | 48.21400 | -117.35370 | 277° | 44km/h | 21979m | -10.2m/s | -51.2°C | 0% | 0hPa | 0V | 00:00:00 | 00:00:00 | 00:00:00 | |
| WB7NNF | 2026-09-01 19:04:36 | 48.21393 | -117.35288 | 290° | 38km/h | 22212m | -10.1m/s | -51.7°C | 0% | 0hPa | 0V | 00:00:00 | 00:00:00 | 00:00:00 | |
| WB7NNF | 2026-09-01 19:04:15 | 48.21305 | -117.35191 | 317° | 58km/h | 22438m | -10.0m/s | -52.2°C | 0% | 0hPa | 0V | 00:00:00 | 00:00:00 | 00:00:00 | |
| WB7NNF | 2026-09-01 19:03:53 | 48.21089 | -117.35116 | 336° | 69km/h | 22666m | -10.8m/s | -52.9°C | 0% | 0hPa | 0V | 00:00:00 | 00:00:00 | 00:00:00 | |
| WB7NNF | 2026-09-01 19:03:30 | 48.20862 | -117.35169 | 349° | 53km/h | 22902m | -10.2m/s | -52.6°C | 0% | 0hPa | 0V | 00:00:00 | 00:00:00 | 00:00:00 | |
| WB7NNF | 2026-09-01 19:03:10 | 48.20723 | -117.35273 | 356° | 49km/h | 23136m | -12.1m/s | -52.0°C | 0% | 0hPa | 0V | 00:00:00 | 00:00:00 | 00:00:00 | |
| WB7NNF | 2026-09-01 19:02:48 | 48.20592 | -117.35418 | 8° | 46km/h | 23386m | -12.5m/s | -51.4°C | 0% | 0hPa | 0V | 00:00:00 | 00:00:00 | 00:00:00 | |
| WB7NNF | 2026-09-01 19:02:27 | 48.20529 | -117.35541 | 344° | 40km/h | 23627m | -11.8m/s | -51.2°C | 0% | 0hPa | 0V | 00:00:00 | 00:00:00 | 00:00:00 | |
| WB7NNF | 2026-09-01 19:02:04 | 48.20459 | -117.35577 | 4° | 44km/h | 23879m | -11.7m/s | -50.8°C | 0% | 0hPa | 0V | 00:00:00 | 00:00:00 | 00:00:00 | |
| WB7NNF | 2026-09-01 19:01:42 | 48.20362 | -117.35743 | 13° | 42km/h | 24139m | -12.5m/s | -50.1°C | 0% | 0hPa | 0V | 00:00:00 | 00:00:00 | 00:00:00 | |
| WB7NNF | 2026-09-01 19:01:20 | 48.20339 | -117.35863 | 340° | 29km/h | 24384m | -11.6m/s | -50.5°C | 0% | 0hPa | 0V | 00:00:00 | 00:00:00 | 00:00:00 | |
| WB7NNF | 2026-09-01 19:00:59 | 48.20309 | -117.35904 | 320° | 40km/h | 24634m | -12.1m/s | -50.7°C | 0% | 0hPa | 0V | 00:00:00 | 00:00:00 | 00:00:00 | |
| WB7NNF | 2026-09-01 19:00:37 | 48.20262 | -117.35930 | 330° | 31km/h | 24897m | -12.5m/s | -50.6°C | 0% | 0hPa | 0V | 00:00:00 | 00:00:00 | 00:00:00 | |
| WB7NNF | 2026-09-01 18:59:56 | 48.20349 | -117.36087 | 264° | 24km/h | 25422m | -11.7m/s | -48.3°C | 0% | 0hPa | 0V | 00:00:00 | 00:00:00 | 00:00:00 | |
| WB7NNF | 2026-09-01 18:59:33 | 48.20500 | -117.36079 | 282° | 33km/h | 25716m | -13.1m/s | -48.4°C | 0% | 0hPa | 0V | 00:00:00 | 00:00:00 | 00:00:00 | |
| WB7NNF | 2026-09-01 18:59:11 | 48.20555 | -117.35964 | 314° | 53km/h | 26000m | -12.9m/s | -49.5°C | 0% | 0hPa | 0V | 00:00:00 | 00:00:00 | 00:00:00 | |
| WB7NNF | 2026-09-01 18:58:50 | 48.20469 | -117.35913 | 348° | 57km/h | 26280m | -13.8m/s | -49.1°C | 0% | 0hPa | 0V | 00:00:00 | 00:00:00 | 00:00:00 | |
| WB7NNF | 2026-09-01 18:58:30 | 48.20421 | -117.35991 | 325° | 22km/h | 26563m | -12.0m/s | -49.4°C | 0% | 0hPa | 0V | 00:00:00 | 00:00:00 | 00:00:00 | |
| WB7NNF | 2026-09-01 18:58:09 | 48.20382 | -117.36043 | 341° | 13km/h | 26825m | -15.8m/s | -48.4°C | 0% | 0hPa | 0V | 00:00:00 | 00:00:00 | 00:00:00 | |
| WB7NNF | 2026-09-01 18:57:49 | 48.20375 | -117.35951 | 255° | 60km/h | 27162m | -13.9m/s | -48.1°C | 0% | 0hPa | 0V | 00:00:00 | 00:00:00 | 00:00:00 | |
| WB7NNF | 2026-09-01 18:57:28 | 48.20451 | -117.35777 | 324° | 42km/h | 27456m | -13.6m/s | -49.0°C | 0% | 0hPa | 0V | 00:00:00 | 00:00:00 | 00:00:00 | |
| WB7NNF | 2026-09-01 18:57:08 | 48.20463 | -117.35600 | 82° | 29km/h | 27765m | -15.9m/s | -49.3°C | 0% | 0hPa | 0V | 00:00:00 | 00:00:00 | 00:00:00 | |
| WB7NNF | 2026-09-01 18:56:47 | 48.20401 | -117.35498 | 233° | 31km/h | 28083m | -16.4m/s | -48.9°C | 0% | 0hPa | 0V | 00:00:00 | 00:00:00 | 00:00:00 | |
| WB7NNF | 2026-09-01 18:56:25 | 48.20303 | -117.35549 | 245° | 22km/h | 28432m | -15.5m/s | -47.8°C | 0% | 0hPa | 0V | 00:00:00 | 00:00:00 | 00:00:00 | |
| WB7NNF | 2026-09-01 18:56:04 | 48.20219 | -117.35611 | 293° | 33km/h | 28792m | -17.2m/s | -46.6°C | 0% | 0hPa | 0V | 00:00:00 | 00:00:00 | 00:00:00 | |
| WB7NNF | 2026-09-01 18:55:42 | 48.20145 | -117.35757 | 350° | 35km/h | 29154m | -17.3m/s | -45.7°C | 0% | 0hPa | 0V | 00:00:00 | 00:00:00 | 00:00:00 | |
| WB7NNF | 2026-09-01 18:55:20 | 48.20103 | -117.36024 | 7° | 40km/h | 29535m | -19.0m/s | -46.6°C | 0% | 0hPa | 0V | 00:00:00 | 00:00:00 | 00:00:00 | |
| WB7NNF | 2026-09-01 18:54:57 | 48.20061 | -117.36193 | 282° | 26km/h | 29964m | -17.2m/s | -43.4°C | 0% | 0hPa | 0V | 00:00:00 | 00:00:00 | 00:00:00 | |
| WB7NNF | 2026-09-01 18:54:35 | 48.20025 | -117.36295 | 316° | 31km/h | 30380m | -18.7m/s | -42.0°C | 0% | 0hPa | 0V | 00:00:00 | 00:00:00 | 00:00:00 | |
| WB7NNF | 2026-09-01 18:54:12 | 48.20054 | -117.36389 | 262° | 44km/h | 30811m | -19.8m/s | -41.8°C | 0% | 0hPa | 0V | 00:00:00 | 00:00:00 | 00:00:00 | |
| WB7NNF | 2026-09-01 18:53:52 | 48.20082 | -117.36414 | 336° | 40km/h | 31243m | -22.0m/s | -42.8°C | 0% | 0hPa | 0V | 00:00:00 | 00:00:00 | 00:00:00 | |
| WB7NNF | 2026-09-01 18:53:27 | 48.20059 | -117.36545 | 276° | 29km/h | 31750m | -21.9m/s | -43.9°C | 0% | 0hPa | 0V | 00:00:00 | 00:00:00 | 00:00:00 | |
| WB7NNF | 2026-09-01 18:53:07 | 48.20012 | -117.36690 | 351° | 47km/h | 32193m | -20.9m/s | -42.6°C | 0% | 0hPa | 0V | 00:00:00 | 00:00:00 | 00:00:00 | |
| WB7NNF | 2026-09-01 18:52:46 | 48.20003 | -117.36773 | 106° | 38km/h | 32607m | -19.4m/s | -41.9°C | 0% | 0hPa | 0V | 00:00:00 | 00:00:00 | 00:00:00 | |
| WB7NNF | 2026-09-01 18:52:26 | 48.19911 | -117.36842 | 193° | 26km/h | 33057m | -24.9m/s | -41.4°C | 0% | 0hPa | 0V | 00:00:00 | 00:00:00 | 00:00:00 | |
| WB7NNF | 2026-09-01 18:52:05 | 48.19912 | -117.36977 | 109° | 27km/h | 33607m | -22.3m/s | -39.0°C | 0% | 0hPa | 0V | 00:00:00 | 00:00:00 | 00:00:00 | |
| WB7NNF | 2026-09-01 18:51:43 | 48.20007 | -117.37037 | 171° | 37km/h | 34099m | 6.1m/s | -39.7°C | 0% | 0hPa | 0V | 00:00:00 | 00:00:00 | 00:00:00 | |
| WB7NNF | 2026-09-01 18:51:22 | 48.20145 | -117.37231 | 162° | 69km/h | 33956m | 9.3m/s | -39.7°C | 0% | 0hPa | 0V | 00:00:00 | 00:00:00 | 00:00:00 | |
| WB7NNF | 2026-09-01 18:50:41 | 48.20295 | -117.37602 | 7° | 37km/h | 33702m | 5.7m/s | -39.2°C | 0% | 0hPa | 0V | 00:00:00 | 00:00:00 | 00:00:00 | |
| WB7NNF | 2026-09-01 18:50:21 | 48.20332 | -117.37660 | 92° | 49km/h | 33562m | 9.8m/s | -39.9°C | 0% | 0hPa | 0V | 00:00:00 | 00:00:00 | 00:00:00 | |
| WB7NNF | 2026-09-01 18:50:00 | 48.20288 | -117.37757 | 275° | 33km/h | 33428m | 5.6m/s | -40.6°C | 0% | 0hPa | 0V | 00:00:00 | 00:00:00 | 00:00:00 | |
| WB7NNF | 2026-09-01 18:49:38 | 48.20232 | -117.37902 | 341° | 51km/h | 33280m | 10.9m/s | -41.5°C | 0% | 0hPa | 0V | 00:00:00 | 00:00:00 | 00:00:00 | |
| WB7NNF | 2026-09-01 18:49:17 | 48.20208 | -117.37921 | 123° | 44km/h | 33146m | 10.4m/s | -41.6°C | 0% | 0hPa | 0V | 00:00:00 | 00:00:00 | 00:00:00 | |
| WB7NNF | 2026-09-01 18:48:57 | 48.20133 | -117.38044 | 314° | 42km/h | 33010m | 9.3m/s | -42.2°C | 0% | 0hPa | 0V | 00:00:00 | 00:00:00 | 00:00:00 | |
| WB7NNF | 2026-09-01 18:48:36 | 48.20068 | -117.38087 | 69° | 51km/h | 32876m | 7.7m/s | -41.9°C | 0% | 0hPa | 0V | 00:00:00 | 00:00:00 | 00:00:00 | |
| WB7NNF | 2026-09-01 18:48:16 | 48.19995 | -117.38063 | 191° | 46km/h | 32738m | 7.9m/s | -41.9°C | 0% | 0hPa | 0V | 00:00:00 | 00:00:00 | 00:00:00 | |
| WB7NNF | 2026-09-01 18:47:55 | 48.19935 | -117.38077 | 270° | 47km/h | 32601m | 2.3m/s | -42.4°C | 0% | 0hPa | 0V | 00:00:00 | 00:00:00 | 00:00:00 | |
| WB7NNF | 2026-09-01 18:47:33 | 48.19868 | -117.38191 | 11° | 42km/h | 32462m | 7.5m/s | -42.3°C | 0% | 0hPa | 0V | 00:00:00 | 00:00:00 | 00:00:00 | |
| WB7NNF | 2026-09-01 18:47:12 | 48.19823 | -117.38253 | 152° | 37km/h | 32334m | 5.2m/s | -42.5°C | 0% | 0hPa | 0V | 00:00:00 | 00:00:00 | 00:00:00 | |
| WB7NNF | 2026-09-01 18:46:52 | 48.19771 | -117.38432 | 325° | 35km/h | 32202m | 7.2m/s | -43.1°C | 0% | 0hPa | 0V | 00:00:00 | 00:00:00 | 00:00:00 | |
| WB7NNF | 2026-09-01 18:46:28 | 48.19728 | -117.38561 | 356° | 49km/h | 32052m | 3.3m/s | -43.8°C | 0% | 0hPa | 0V | 00:00:00 | 00:00:00 | 00:00:00 | |
| WB7NNF | 2026-09-01 18:46:08 | 48.19703 | -117.38639 | 87° | 37km/h | 31918m | 8.2m/s | -44.6°C | 0% | 0hPa | 0V | 00:00:00 | 00:00:00 | 00:00:00 | |
| WB7NNF | 2026-09-01 18:45:47 | 48.19636 | -117.38731 | 180° | 29km/h | 31769m | 9.1m/s | -44.6°C | 0% | 0hPa | 0V | 00:00:00 | 00:00:00 | 00:00:00 | |
| WB7NNF | 2026-09-01 18:45:26 | 48.19636 | -117.38862 | 42° | 38km/h | 31635m | 10.8m/s | -44.3°C | 0% | 0hPa | 0V | 00:00:00 | 00:00:00 | 00:00:00 | |
| WB7NNF | 2026-09-01 18:45:05 | 48.19630 | -117.38939 | 145° | 4km/h | 31499m | 6.1m/s | -43.5°C | 0% | 0hPa | 0V | 00:00:00 | 00:00:00 | 00:00:00 | |
| WB7NNF | 2026-09-01 18:44:43 | 48.19611 | -117.39075 | 359° | 44km/h | 31348m | 8.4m/s | -43.5°C | 0% | 0hPa | 0V | 00:00:00 | 00:00:00 | 00:00:00 | |
| WB7NNF | 2026-09-01 18:44:23 | 48.19572 | -117.39147 | 128° | 22km/h | 31207m | 6.6m/s | -43.1°C | 0% | 0hPa | 0V | 00:00:00 | 00:00:00 | 00:00:00 | |
| WB7NNF | 2026-09-01 18:44:02 | 48.19585 | -117.39171 | 291° | 35km/h | 31074m | 6.2m/s | -42.6°C | 0% | 0hPa | 0V | 00:00:00 | 00:00:00 | 00:00:00 | |
| WB7NNF | 2026-09-01 18:43:39 | 48.19676 | -117.39130 | 295° | 20km/h | 30924m | 7.5m/s | -42.7°C | 0% | 0hPa | 0V | 00:00:00 | 00:00:00 | 00:00:00 | |
| WB7NNF | 2026-09-01 18:43:19 | 48.19781 | -117.39150 | 126° | 57km/h | 30790m | 4.1m/s | -42.6°C | 0% | 0hPa | 0V | 00:00:00 | 00:00:00 | 00:00:00 | |
| WB7NNF | 2026-09-01 18:42:58 | 48.19830 | -117.39250 | 313° | 18km/h | 30667m | 8.6m/s | -42.6°C | 0% | 0hPa | 0V | 00:00:00 | 00:00:00 | 00:00:00 | |
| WB7NNF | 2026-09-01 18:42:38 | 48.19822 | -117.39330 | 100° | 40km/h | 30533m | 4.5m/s | -42.5°C | 0% | 0hPa | 0V | 00:00:00 | 00:00:00 | 00:00:00 | |
| WB7NNF | 2026-09-01 18:42:17 | 48.19802 | -117.39434 | 319° | 22km/h | 30407m | 8.5m/s | -42.9°C | 0% | 0hPa | 0V | 00:00:00 | 00:00:00 | 00:00:00 | |
| WB7NNF | 2026-09-01 18:41:57 | 48.19749 | -117.39503 | 38° | 9km/h | 30279m | 5.6m/s | -43.3°C | 0% | 0hPa | 0V | 00:00:00 | 00:00:00 | 00:00:00 | |
| WB7NNF | 2026-09-01 18:41:36 | 48.19730 | -117.39549 | 103° | 22km/h | 30158m | 10.7m/s | -44.1°C | 0% | 0hPa | 0V | 00:00:00 | 00:00:00 | 00:00:00 | |
| WB7NNF | 2026-09-01 18:41:16 | 48.19735 | -117.39662 | 201° | 9km/h | 30029m | 5.0m/s | -44.2°C | 0% | 0hPa | 0V | 00:00:00 | 00:00:00 | 00:00:00 | |
| WB7NNF | 2026-09-01 18:40:55 | 48.19751 | -117.39832 | 103° | 60km/h | 29912m | 5.5m/s | -44.5°C | 0% | 0hPa | 0V | 00:00:00 | 00:00:00 | 00:00:00 | |
| WB7NNF | 2026-09-01 18:40:35 | 48.19719 | -117.39977 | 360° | 31km/h | 29784m | 3.1m/s | -45.5°C | 0% | 0hPa | 0V | 00:00:00 | 00:00:00 | 00:00:00 | |
| WB7NNF | 2026-09-01 18:40:14 | 48.19658 | -117.40106 | 74° | 24km/h | 29646m | 6.8m/s | -46.8°C | 0% | 0hPa | 0V | 00:00:00 | 00:00:00 | 00:00:00 | |
| WB7NNF | 2026-09-01 18:39:53 | 48.19598 | -117.40253 | 31° | 38km/h | 29500m | 8.3m/s | -47.2°C | 0% | 0hPa | 0V | 00:00:00 | 00:00:00 | 00:00:00 | |
| WB7NNF | 2026-09-01 18:39:31 | 48.19532 | -117.40463 | 41° | 33km/h | 29371m | 5.8m/s | -46.9°C | 0% | 0hPa | 0V | 00:00:00 | 00:00:00 | 00:00:00 | |
| WB7NNF | 2026-09-01 18:39:09 | 48.19443 | -117.40693 | 55° | 35km/h | 29220m | 8.4m/s | -45.9°C | 0% | 0hPa | 0V | 00:00:00 | 00:00:00 | 00:00:00 | |
| WB7NNF | 2026-09-01 18:38:47 | 48.19329 | -117.40837 | 350° | 26km/h | 29079m | 6.0m/s | -46.5°C | 0% | 0hPa | 0V | 00:00:00 | 00:00:00 | 00:00:00 | |
| WB7NNF | 2026-09-01 18:38:26 | 48.19248 | -117.40887 | 292° | 33km/h | 28934m | 1.9m/s | -46.8°C | 0% | 0hPa | 0V | 00:00:00 | 00:00:00 | 00:00:00 | |
| WB7NNF | 2026-09-01 18:38:04 | 48.19159 | -117.40929 | 359° | 20km/h | 28798m | 8.0m/s | -47.3°C | 0% | 0hPa | 0V | 00:00:00 | 00:00:00 | 00:00:00 | |
| WB7NNF | 2026-09-01 18:37:44 | 48.19051 | -117.40896 | 12° | 13km/h | 28667m | 5.0m/s | -47.4°C | 0% | 0hPa | 0V | 00:00:00 | 00:00:00 | 00:00:00 | |
| WB7NNF | 2026-09-01 18:37:22 | 48.18970 | -117.40895 | 63° | 31km/h | 28541m | 9.9m/s | -47.6°C | 0% | 0hPa | 0V | 00:00:00 | 00:00:00 | 00:00:00 | |
| WB7NNF | 2026-09-01 18:36:41 | 48.18782 | -117.41061 | 51° | 16km/h | 28295m | 7.1m/s | -48.3°C | 0% | 0hPa | 0V | 00:00:00 | 00:00:00 | 00:00:00 | |
| WB7NNF | 2026-09-01 18:36:21 | 48.18675 | -117.40992 | 361° | 40km/h | 28165m | 5.8m/s | -48.2°C | 0% | 0hPa | 0V | 00:00:00 | 00:00:00 | 00:00:00 | |
| WB7NNF | 2026-09-01 18:36:00 | 48.18571 | -117.40882 | 299° | 37km/h | 28049m | 4.2m/s | -48.1°C | 0% | 0hPa | 0V | 00:00:00 | 00:00:00 | 00:00:00 | |
| WB7NNF | 2026-09-01 18:35:40 | 48.18495 | -117.40786 | 290° | 18km/h | 27926m | 4.1m/s | -48.5°C | 0% | 0hPa | 0V | 00:00:00 | 00:00:00 | 00:00:00 | |
| WB7NNF | 2026-09-01 18:35:19 | 48.18439 | -117.40709 | 321° | 13km/h | 27813m | 4.8m/s | -48.7°C | 0% | 0hPa | 0V | 00:00:00 | 00:00:00 | 00:00:00 | |
| WB7NNF | 2026-09-01 18:34:59 | 48.18414 | -117.40614 | 29° | 18km/h | 27686m | 5.0m/s | -48.8°C | 0% | 0hPa | 0V | 00:00:00 | 00:00:00 | 00:00:00 | |
| WB7NNF | 2026-09-01 18:34:38 | 48.18409 | -117.40506 | 247° | 44km/h | 27564m | 3.5m/s | -48.9°C | 0% | 0hPa | 0V | 00:00:00 | 00:00:00 | 00:00:00 | |
| WB7NNF | 2026-09-01 18:34:18 | 48.18420 | -117.40359 | 227° | 15km/h | 27444m | 8.4m/s | -48.3°C | 0% | 0hPa | 0V | 00:00:00 | 00:00:00 | 00:00:00 | |
| WB7NNF | 2026-09-01 18:33:57 | 48.18494 | -117.40210 | 308° | 20km/h | 27315m | 5.7m/s | -48.1°C | 0% | 0hPa | 0V | 00:00:00 | 00:00:00 | 00:00:00 | |
| WB7NNF | 2026-09-01 18:33:36 | 48.18578 | -117.40074 | 135° | 18km/h | 27188m | 8.6m/s | -47.9°C | 0% | 0hPa | 0V | 00:00:00 | 00:00:00 | 00:00:00 | |
| WB7NNF | 2026-09-01 18:33:15 | 48.18636 | -117.39995 | 200° | 9km/h | 27055m | 8.6m/s | -47.6°C | 0% | 0hPa | 0V | 00:00:00 | 00:00:00 | 00:00:00 | |
| WB7NNF | 2026-09-01 18:32:54 | 48.18614 | -117.39969 | 15° | 24km/h | 26918m | 4.1m/s | -48.1°C | 0% | 0hPa | 0V | 00:00:00 | 00:00:00 | 00:00:00 | |
| WB7NNF | 2026-09-01 18:32:33 | 48.18577 | -117.39955 | 34° | 38km/h | 26791m | 5.8m/s | -48.6°C | 0% | 0hPa | 0V | 00:00:00 | 00:00:00 | 00:00:00 | |
| WB7NNF | 2026-09-01 18:32:12 | 48.18551 | -117.39983 | 116° | 20km/h | 26667m | 5.7m/s | -49.0°C | 0% | 0hPa | 0V | 00:00:00 | 00:00:00 | 00:00:00 | |
| WB7NNF | 2026-09-01 18:31:52 | 48.18517 | -117.40101 | 350° | 11km/h | 26535m | 6.4m/s | -48.7°C | 0% | 0hPa | 0V | 00:00:00 | 00:00:00 | 00:00:00 | |
| WB7NNF | 2026-09-01 18:31:31 | 48.18463 | -117.40175 | 316° | 26km/h | 26411m | 4.3m/s | -48.5°C | 0% | 0hPa | 0V | 00:00:00 | 00:00:00 | 00:00:00 | |
| WB7NNF | 2026-09-01 18:31:11 | 48.18376 | -117.40253 | 355° | 20km/h | 26281m | 5.7m/s | -48.3°C | 0% | 0hPa | 0V | 00:00:00 | 00:00:00 | 00:00:00 | |
| WB7NNF | 2026-09-01 18:30:49 | 48.18284 | -117.40273 | 10° | 9km/h | 26150m | 6.3m/s | -48.5°C | 0% | 0hPa | 0V | 00:00:00 | 00:00:00 | 00:00:00 | |
| WB7NNF | 2026-09-01 18:30:28 | 48.18178 | -117.40227 | 356° | 16km/h | 26025m | 7.1m/s | -48.6°C | 0% | 0hPa | 0V | 00:00:00 | 00:00:00 | 00:00:00 | |
| WB7NNF | 2026-09-01 18:30:07 | 48.18154 | -117.40130 | 196° | 22km/h | 25891m | 6.1m/s | -48.6°C | 0% | 0hPa | 0V | 00:00:00 | 00:00:00 | 00:00:00 | |
| WB7NNF | 2026-09-01 18:29:47 | 48.18185 | -117.40034 | 271° | 26km/h | 25767m | 4.6m/s | -47.9°C | 0% | 0hPa | 0V | 00:00:00 | 00:00:00 | 00:00:00 | |
| WB7NNF | 2026-09-01 18:29:24 | 48.18301 | -117.39989 | 153° | 49km/h | 25635m | 6.5m/s | -47.8°C | 0% | 0hPa | 0V | 00:00:00 | 00:00:00 | 00:00:00 | |
| WB7NNF | 2026-09-01 18:29:04 | 48.18465 | -117.39995 | 171° | 38km/h | 25516m | 5.4m/s | -47.7°C | 0% | 0hPa | 0V | 00:00:00 | 00:00:00 | 00:00:00 | |
| WB7NNF | 2026-09-01 18:28:43 | 48.18608 | -117.40046 | 143° | 44km/h | 25406m | 6.7m/s | -48.3°C | 0% | 0hPa | 0V | 00:00:00 | 00:00:00 | 00:00:00 | |
| WB7NNF | 2026-09-01 18:28:23 | 48.18709 | -117.40104 | 146° | 31km/h | 25289m | 3.3m/s | -49.2°C | 0% | 0hPa | 0V | 00:00:00 | 00:00:00 | 00:00:00 | |
| WB7NNF | 2026-09-01 18:28:02 | 48.18767 | -117.40180 | 140° | 18km/h | 25173m | 7.4m/s | -49.4°C | 0% | 0hPa | 0V | 00:00:00 | 00:00:00 | 00:00:00 | |
| WB7NNF | 2026-09-01 18:27:42 | 48.18857 | -117.40279 | 148° | 24km/h | 25052m | 6.0m/s | -49.6°C | 0% | 0hPa | 0V | 00:00:00 | 00:00:00 | 00:00:00 | |
| WB7NNF | 2026-09-01 18:27:21 | 48.18897 | -117.40402 | 0° | 0km/h | 24939m | 6.9m/s | -49.4°C | 0% | 0hPa | 0V | 00:00:00 | 00:00:00 | 00:00:00 | |
| WB7NNF | 2026-09-01 18:27:01 | 48.18876 | -117.40465 | 23° | 33km/h | 24821m | 2.1m/s | -50.5°C | 0% | 0hPa | 0V | 00:00:00 | 00:00:00 | 00:00:00 | |
| WB7NNF | 2026-09-01 18:26:40 | 48.18852 | -117.40504 | 27° | 15km/h | 24708m | 7.1m/s | -50.6°C | 0% | 0hPa | 0V | 00:00:00 | 00:00:00 | 00:00:00 | |
| WB7NNF | 2026-09-01 18:26:20 | 48.18782 | -117.40475 | 356° | 22km/h | 24584m | 3.8m/s | -50.7°C | 0% | 0hPa | 0V | 00:00:00 | 00:00:00 | 00:00:00 | |
| WB7NNF | 2026-09-01 18:25:59 | 48.18740 | -117.40491 | 354° | 27km/h | 24468m | 7.1m/s | -50.7°C | 0% | 0hPa | 0V | 00:00:00 | 00:00:00 | 00:00:00 | |
| WB7NNF | 2026-09-01 18:25:39 | 48.18694 | -117.40567 | 18° | 27km/h | 24349m | 6.8m/s | -50.6°C | 0% | 0hPa | 0V | 00:00:00 | 00:00:00 | 00:00:00 | |
| WB7NNF | 2026-09-01 18:25:18 | 48.18634 | -117.40697 | 46° | 15km/h | 24237m | 6.1m/s | -50.5°C | 0% | 0hPa | 0V | 00:00:00 | 00:00:00 | 00:00:00 | |
| WB7NNF | 2026-09-01 18:24:58 | 48.18539 | -117.40820 | 22° | 40km/h | 24114m | 1.6m/s | -50.9°C | 0% | 0hPa | 0V | 00:00:00 | 00:00:00 | 00:00:00 | |
| WB7NNF | 2026-09-01 18:24:37 | 48.18431 | -117.40950 | 2° | 24km/h | 23995m | 3.7m/s | -51.5°C | 0% | 0hPa | 0V | 00:00:00 | 00:00:00 | 00:00:00 | |
| WB7NNF | 2026-09-01 18:24:16 | 48.18325 | -117.41032 | 20° | 24km/h | 23880m | 6.0m/s | -51.8°C | 0% | 0hPa | 0V | 00:00:00 | 00:00:00 | 00:00:00 | |
| WB7NNF | 2026-09-01 18:23:56 | 48.18278 | -117.41069 | 97° | 4km/h | 23759m | 5.7m/s | -52.0°C | 0% | 0hPa | 0V | 00:00:00 | 00:00:00 | 00:00:00 | |
| WB7NNF | 2026-09-01 18:23:34 | 48.18211 | -117.41152 | 55° | 27km/h | 23636m | 5.3m/s | -52.2°C | 0% | 0hPa | 0V | 00:00:00 | 00:00:00 | 00:00:00 | |
| WB7NNF | 2026-09-01 18:22:53 | 48.18036 | -117.41385 | 39° | 18km/h | 23412m | 5.6m/s | -52.3°C | 0% | 0hPa | 0V | 00:00:00 | 00:00:00 | 00:00:00 | |
| WB7NNF | 2026-09-01 18:22:32 | 48.17908 | -117.41458 | 9° | 27km/h | 23296m | 6.9m/s | -52.3°C | 0% | 0hPa | 0V | 00:00:00 | 00:00:00 | 00:00:00 | |
| WB7NNF | 2026-09-01 18:22:11 | 48.17770 | -117.41532 | 354° | 38km/h | 23187m | 4.5m/s | -52.0°C | 0% | 0hPa | 0V | 00:00:00 | 00:00:00 | 00:00:00 | |
| WB7NNF | 2026-09-01 18:21:51 | 48.17583 | -117.41585 | 39° | 29km/h | 23073m | 6.9m/s | -52.2°C | 0% | 0hPa | 0V | 00:00:00 | 00:00:00 | 00:00:00 | |
| WB7NNF | 2026-09-01 18:21:10 | 48.17327 | -117.41614 | 354° | 24km/h | 22848m | 7.0m/s | -52.3°C | 0% | 0hPa | 0V | 00:00:00 | 00:00:00 | 00:00:00 | |
| WB7NNF | 2026-09-01 18:20:49 | 48.17176 | -117.41601 | 11° | 20km/h | 22739m | 5.5m/s | -52.5°C | 0% | 0hPa | 0V | 00:00:00 | 00:00:00 | 00:00:00 | |
| WB7NNF | 2026-09-01 18:20:29 | 48.16967 | -117.41530 | 348° | 46km/h | 22625m | 7.0m/s | -52.6°C | 0% | 0hPa | 0V | 00:00:00 | 00:00:00 | 00:00:00 | |
| WB7NNF | 2026-09-01 18:20:08 | 48.16796 | -117.41392 | 310° | 38km/h | 22510m | 6.4m/s | -52.3°C | 0% | 0hPa | 0V | 00:00:00 | 00:00:00 | 00:00:00 | |
| WB7NNF | 2026-09-01 18:19:48 | 48.16697 | -117.41228 | 334° | 33km/h | 22392m | 5.5m/s | -51.7°C | 0% | 0hPa | 0V | 00:00:00 | 00:00:00 | 00:00:00 | |
| WB7NNF | 2026-09-01 18:19:07 | 48.16647 | -117.40975 | 258° | 13km/h | 22170m | 4.4m/s | -51.2°C | 0% | 0hPa | 0V | 00:00:00 | 00:00:00 | 00:00:00 | |
| WB7NNF | 2026-09-01 18:18:46 | 48.16671 | -117.40960 | 228° | 9km/h | 22060m | 7.4m/s | -51.4°C | 0% | 0hPa | 0V | 00:00:00 | 00:00:00 | 00:00:00 | |
| WB7NNF | 2026-09-01 18:18:26 | 48.16688 | -117.40892 | 350° | 5km/h | 21947m | 6.8m/s | -51.2°C | 0% | 0hPa | 0V | 00:00:00 | 00:00:00 | 00:00:00 | |
| WB7NNF | 2026-09-01 18:18:05 | 48.16688 | -117.40833 | 308° | 9km/h | 21839m | 4.5m/s | -51.3°C | 0% | 0hPa | 0V | 00:00:00 | 00:00:00 | 00:00:00 | |
| WB7NNF | 2026-09-01 18:17:44 | 48.16688 | -117.40858 | 96° | 9km/h | 21736m | 5.5m/s | -52.2°C | 0% | 0hPa | 0V | 00:00:00 | 00:00:00 | 00:00:00 | |
| WB7NNF | 2026-09-01 18:17:24 | 48.16678 | -117.40871 | 110° | 5km/h | 21626m | 4.2m/s | -52.3°C | 0% | 0hPa | 0V | 00:00:00 | 00:00:00 | 00:00:00 | |
| WB7NNF | 2026-09-01 18:17:03 | 48.16672 | -117.40897 | 180° | 7km/h | 21523m | 6.0m/s | -52.7°C | 0% | 0hPa | 0V | 00:00:00 | 00:00:00 | 00:00:00 | |
| WB7NNF | 2026-09-01 18:16:43 | 48.16698 | -117.40933 | 179° | 13km/h | 21408m | 6.8m/s | -53.1°C | 0% | 0hPa | 0V | 00:00:00 | 00:00:00 | 00:00:00 | |
| WB7NNF | 2026-09-01 18:16:23 | 48.16753 | -117.40986 | 161° | 20km/h | 21299m | 3.8m/s | -53.0°C | 0% | 0hPa | 0V | 00:00:00 | 00:00:00 | 00:00:00 | |
| WB7NNF | 2026-09-01 18:16:02 | 48.16825 | -117.41105 | 102° | 27km/h | 21188m | 5.9m/s | -52.6°C | 0% | 0hPa | 0V | 00:00:00 | 00:00:00 | 00:00:00 | |
| WB7NNF | 2026-09-01 18:15:41 | 48.16901 | -117.41285 | 120° | 29km/h | 21076m | 4.9m/s | -51.7°C | 0% | 0hPa | 0V | 00:00:00 | 00:00:00 | 00:00:00 | |
| WB7NNF | 2026-09-01 18:15:21 | 48.16952 | -117.41468 | 98° | 24km/h | 20965m | 7.0m/s | -51.8°C | 0% | 0hPa | 0V | 00:00:00 | 00:00:00 | 00:00:00 | |
| WB7NNF | 2026-09-01 18:15:00 | 48.16984 | -117.41701 | 88° | 27km/h | 20857m | 4.9m/s | -52.4°C | 0% | 0hPa | 0V | 00:00:00 | 00:00:00 | 00:00:00 | |
| WB7NNF | 2026-09-01 18:14:40 | 48.16967 | -117.41980 | 98° | 40km/h | 20748m | 4.1m/s | -52.9°C | 0% | 0hPa | 0V | 00:00:00 | 00:00:00 | 00:00:00 | |
| WB7NNF | 2026-09-01 18:14:19 | 48.16887 | -117.42255 | 49° | 38km/h | 20643m | 6.3m/s | -53.2°C | 0% | 0hPa | 0V | 00:00:00 | 00:00:00 | 00:00:00 | |
| WB7NNF | 2026-09-01 18:13:59 | 48.16758 | -117.42497 | 30° | 27km/h | 20539m | 5.9m/s | -52.9°C | 0% | 0hPa | 0V | 00:00:00 | 00:00:00 | 00:00:00 | |
| WB7NNF | 2026-09-01 18:13:38 | 48.16642 | -117.42677 | 50° | 16km/h | 20438m | 5.0m/s | -52.4°C | 0% | 0hPa | 0V | 00:00:00 | 00:00:00 | 00:00:00 | |
| WB7NNF | 2026-09-01 18:13:18 | 48.16545 | -117.42820 | 32° | 18km/h | 20333m | 5.3m/s | -52.5°C | 0% | 0hPa | 0V | 00:00:00 | 00:00:00 | 00:00:00 | |
| WB7NNF | 2026-09-01 18:12:57 | 48.16418 | -117.42960 | 32° | 26km/h | 20224m | 6.7m/s | -52.9°C | 0% | 0hPa | 0V | 00:00:00 | 00:00:00 | 00:00:00 | |
| WB7NNF | 2026-09-01 18:12:36 | 48.16279 | -117.43081 | 19° | 33km/h | 20123m | 5.5m/s | -52.9°C | 0% | 0hPa | 0V | 00:00:00 | 00:00:00 | 00:00:00 | |
| WB7NNF | 2026-09-01 18:12:16 | 48.16109 | -117.43179 | 31° | 35km/h | 20019m | 6.1m/s | -53.1°C | 0% | 0hPa | 0V | 00:00:00 | 00:00:00 | 00:00:00 | |
| WB7NNF | 2026-09-01 18:11:55 | 48.15967 | -117.43277 | 33° | 26km/h | 19918m | 4.7m/s | -53.1°C | 0% | 0hPa | 0V | 00:00:00 | 00:00:00 | 00:00:00 | |
| WB7NNF | 2026-09-01 18:11:35 | 48.15810 | -117.43423 | 44° | 37km/h | 19813m | 4.9m/s | -53.6°C | 0% | 0hPa | 0V | 00:00:00 | 00:00:00 | 00:00:00 | |
| WB7NNF | 2026-09-01 18:11:14 | 48.15638 | -117.43606 | 38° | 33km/h | 19707m | 3.2m/s | -54.6°C | 0% | 0hPa | 0V | 00:00:00 | 00:00:00 | 00:00:00 | |
| WB7NNF | 2026-09-01 18:10:54 | 48.15422 | -117.43729 | 354° | 49km/h | 19596m | 5.2m/s | -54.8°C | 0% | 0hPa | 0V | 00:00:00 | 00:00:00 | 00:00:00 | |
| WB7NNF | 2026-09-01 18:10:33 | 48.15260 | -117.43786 | 349° | 31km/h | 19490m | 5.2m/s | -53.8°C | 0% | 0hPa | 0V | 00:00:00 | 00:00:00 | 00:00:00 | |
| WB7NNF | 2026-09-01 18:10:13 | 48.15128 | -117.43800 | 16° | 29km/h | 19376m | 4.3m/s | -53.5°C | 0% | 0hPa | 0V | 00:00:00 | 00:00:00 | 00:00:00 | |
| WB7NNF | 2026-09-01 18:09:52 | 48.15037 | -117.43784 | 339° | 11km/h | 19267m | 3.4m/s | -52.9°C | 0% | 0hPa | 0V | 00:00:00 | 00:00:00 | 00:00:00 | |
| WB7NNF | 2026-09-01 18:09:32 | 48.14962 | -117.43804 | 45° | 18km/h | 19157m | 6.5m/s | -53.0°C | 0% | 0hPa | 0V | 00:00:00 | 00:00:00 | 00:00:00 | |
| WB7NNF | 2026-09-01 18:09:11 | 48.14884 | -117.43941 | 55° | 31km/h | 19048m | 5.8m/s | -52.7°C | 0% | 0hPa | 0V | 00:00:00 | 00:00:00 | 00:00:00 | |
| WB7NNF | 2026-09-01 18:08:51 | 48.14766 | -117.44156 | 34° | 53km/h | 18939m | 5.0m/s | -53.8°C | 0% | 0hPa | 0V | 00:00:00 | 00:00:00 | 00:00:00 | |
| WB7NNF | 2026-09-01 18:08:30 | 48.14588 | -117.44354 | 46° | 40km/h | 18835m | 6.8m/s | -53.6°C | 0% | 0hPa | 0V | 00:00:00 | 00:00:00 | 00:00:00 | |
| WB7NNF | 2026-09-01 18:08:08 | 48.14351 | -117.44516 | 12° | 57km/h | 18721m | 4.1m/s | -53.4°C | 0% | 0hPa | 0V | 00:00:00 | 00:00:00 | 00:00:00 | |
| WB7NNF | 2026-09-01 18:07:45 | 48.14136 | -117.44622 | 21° | 35km/h | 18597m | 6.8m/s | -53.1°C | 0% | 0hPa | 0V | 00:00:00 | 00:00:00 | 00:00:00 | |
| WB7NNF | 2026-09-01 18:07:25 | 48.13997 | -117.44664 | 359° | 20km/h | 18488m | 3.8m/s | -52.8°C | 0% | 0hPa | 0V | 00:00:00 | 00:00:00 | 00:00:00 | |
| WB7NNF | 2026-09-01 18:07:04 | 48.13894 | -117.44739 | 25° | 29km/h | 18384m | 5.8m/s | -52.2°C | 0% | 0hPa | 0V | 00:00:00 | 00:00:00 | 00:00:00 | |
| WB7NNF | 2026-09-01 18:06:44 | 48.13809 | -117.44850 | 15° | 31km/h | 18274m | 5.3m/s | -52.0°C | 0% | 0hPa | 0V | 00:00:00 | 00:00:00 | 00:00:00 | |
| WB7NNF | 2026-09-01 18:06:23 | 48.13701 | -117.45026 | 64° | 42km/h | 18163m | 3.3m/s | -52.1°C | 0% | 0hPa | 0V | 00:00:00 | 00:00:00 | 00:00:00 | |
| WB7NNF | 2026-09-01 18:06:03 | 48.13538 | -117.45268 | 37° | 38km/h | 18059m | 4.2m/s | -52.2°C | 0% | 0hPa | 0V | 00:00:00 | 00:00:00 | 00:00:00 | |
| WB7NNF | 2026-09-01 18:05:39 | 48.13298 | -117.45563 | 41° | 40km/h | 17940m | 5.1m/s | -52.4°C | 0% | 0hPa | 0V | 00:00:00 | 00:00:00 | 00:00:00 | |
| WB7NNF | 2026-09-01 18:05:18 | 48.13094 | -117.45787 | 57° | 46km/h | 17827m | 3.7m/s | -52.4°C | 0% | 0hPa | 0V | 00:00:00 | 00:00:00 | 00:00:00 | |
| WB7NNF | 2026-09-01 18:04:54 | 48.12884 | -117.46035 | 38° | 47km/h | 17708m | 5.8m/s | -52.4°C | 0% | 0hPa | 0V | 00:00:00 | 00:00:00 | 00:00:00 | |
| WB7NNF | 2026-09-01 18:04:33 | 48.12636 | -117.46267 | 26° | 57km/h | 17601m | 5.3m/s | -52.5°C | 0% | 0hPa | 0V | 00:00:00 | 00:00:00 | 00:00:00 | |
| WB7NNF | 2026-09-01 18:04:13 | 48.12392 | -117.46471 | 24° | 69km/h | 17500m | 4.7m/s | -52.3°C | 0% | 0hPa | 0V | 00:00:00 | 00:00:00 | 00:00:00 | |
| WB7NNF | 2026-09-01 18:03:52 | 48.12133 | -117.46638 | 34° | 38km/h | 17392m | 5.2m/s | -51.9°C | 0% | 0hPa | 0V | 00:00:00 | 00:00:00 | 00:00:00 | |
| WB7NNF | 2026-09-01 18:03:31 | 48.11903 | -117.46792 | 26° | 40km/h | 17287m | 4.0m/s | -51.4°C | 0% | 0hPa | 0V | 00:00:00 | 00:00:00 | 00:00:00 | |
| WB7NNF | 2026-09-01 18:03:09 | 48.11699 | -117.46951 | 18° | 49km/h | 17193m | 3.9m/s | -51.2°C | 0% | 0hPa | 0V | 00:00:00 | 00:00:00 | 00:00:00 | |
| WB7NNF | 2026-09-01 18:02:49 | 48.11527 | -117.47130 | 42° | 42km/h | 17099m | 5.2m/s | -51.4°C | 0% | 0hPa | 0V | 00:00:00 | 00:00:00 | 00:00:00 | |
| WB7NNF | 2026-09-01 18:02:28 | 48.11337 | -117.47308 | 30° | 49km/h | 17008m | 5.3m/s | -53.2°C | 0% | 0hPa | 0V | 00:00:00 | 00:00:00 | 00:00:00 | |
| WB7NNF | 2026-09-01 18:02:07 | 48.11123 | -117.47464 | 19° | 47km/h | 16913m | 6.2m/s | -53.1°C | 0% | 0hPa | 0V | 00:00:00 | 00:00:00 | 00:00:00 | |
| WB7NNF | 2026-09-01 18:01:47 | 48.10945 | -117.47635 | 34° | 60km/h | 16805m | 7.7m/s | -54.0°C | 0% | 0hPa | 0V | 00:00:00 | 00:00:00 | 00:00:00 | |
| WB7NNF | 2026-09-01 18:01:26 | 48.10772 | -117.47889 | 38° | 51km/h | 16661m | 7.6m/s | -53.8°C | 0% | 0hPa | 0V | 00:00:00 | 00:00:00 | 00:00:00 | |
| WB7NNF | 2026-09-01 18:01:06 | 48.10541 | -117.48169 | 32° | 49km/h | 16539m | 5.6m/s | -53.7°C | 0% | 0hPa | 0V | 00:00:00 | 00:00:00 | 00:00:00 | |
| WB7NNF | 2026-09-01 18:00:04 | 48.09711 | -117.48993 | 42° | 60km/h | 16195m | 4.7m/s | -54.1°C | 0% | 0hPa | 0V | 00:00:00 | 00:00:00 | 00:00:00 | |
| WB7NNF | 2026-09-01 17:59:42 | 48.09473 | -117.49242 | 25° | 62km/h | 16100m | 4.7m/s | -53.9°C | 0% | 0hPa | 0V | 00:00:00 | 00:00:00 | 00:00:00 | |
| WB7NNF | 2026-09-01 17:59:21 | 48.09209 | -117.49472 | 29° | 49km/h | 16004m | 5.7m/s | -54.5°C | 0% | 0hPa | 0V | 00:00:00 | 00:00:00 | 00:00:00 | |
| WB7NNF | 2026-09-01 17:59:01 | 48.08963 | -117.49657 | 24° | 62km/h | 15901m | 4.1m/s | -54.1°C | 0% | 0hPa | 0V | 00:00:00 | 00:00:00 | 00:00:00 | |
| WB7NNF | 2026-09-01 17:58:40 | 48.08701 | -117.49834 | 31° | 60km/h | 15804m | 5.4m/s | -54.3°C | 0% | 0hPa | 0V | 00:00:00 | 00:00:00 | 00:00:00 | |
| WB7NNF | 2026-09-01 17:58:18 | 48.08435 | -117.50078 | 26° | 62km/h | 15704m | 5.6m/s | -54.1°C | 0% | 0hPa | 0V | 00:00:00 | 00:00:00 | 00:00:00 | |
| WB7NNF | 2026-09-01 17:57:54 | 48.08105 | -117.50410 | 31° | 64km/h | 15593m | 3.6m/s | -54.7°C | 0% | 0hPa | 0V | 00:00:00 | 00:00:00 | 00:00:00 | |
| WB7NNF | 2026-09-01 17:57:27 | 48.07716 | -117.50664 | 26° | 58km/h | 15474m | 3.7m/s | -54.6°C | 0% | 0hPa | 0V | 00:00:00 | 00:00:00 | 00:00:00 | |
| WB7NNF | 2026-09-01 17:57:07 | 48.07449 | -117.50760 | 18° | 58km/h | 15376m | 4.1m/s | -54.4°C | 0% | 0hPa | 0V | 00:00:00 | 00:00:00 | 00:00:00 | |
| WB7NNF | 2026-09-01 17:56:46 | 48.07220 | -117.50885 | 18° | 42km/h | 15283m | 4.4m/s | -54.4°C | 0% | 0hPa | 0V | 00:00:00 | 00:00:00 | 00:00:00 | |
| WB7NNF | 2026-09-01 17:56:26 | 48.07003 | -117.51031 | 30° | 42km/h | 15186m | 5.4m/s | -54.4°C | 0% | 0hPa | 0V | 00:00:00 | 00:00:00 | 00:00:00 | |
| WB7NNF | 2026-09-01 17:56:05 | 48.06814 | -117.51176 | 32° | 46km/h | 15090m | 4.4m/s | -54.2°C | 0% | 0hPa | 0V | 00:00:00 | 00:00:00 | 00:00:00 | |
| WB7NNF | 2026-09-01 17:55:45 | 48.06609 | -117.51334 | 33° | 49km/h | 14985m | 4.4m/s | -53.6°C | 0% | 0hPa | 0V | 00:00:00 | 00:00:00 | 00:00:00 | |
| WB7NNF | 2026-09-01 17:55:24 | 48.06397 | -117.51482 | 18° | 60km/h | 14886m | 4.6m/s | -53.4°C | 0% | 0hPa | 0V | 00:00:00 | 00:00:00 | 00:00:00 | |
| WB7NNF | 2026-09-01 17:55:04 | 48.06153 | -117.51631 | 34° | 47km/h | 14785m | 5.8m/s | -53.1°C | 0% | 0hPa | 0V | 00:00:00 | 00:00:00 | 00:00:00 | |
| WB7NNF | 2026-09-01 17:54:43 | 48.05923 | -117.51806 | 17° | 51km/h | 14690m | 4.3m/s | -52.5°C | 0% | 0hPa | 0V | 00:00:00 | 00:00:00 | 00:00:00 | |
| WB7NNF | 2026-09-01 17:54:23 | 48.05649 | -117.52001 | 22° | 55km/h | 14589m | 6.0m/s | -52.3°C | 0% | 0hPa | 0V | 00:00:00 | 00:00:00 | 00:00:00 | |
| WB7NNF | 2026-09-01 17:53:42 | 48.05035 | -117.52354 | 7° | 71km/h | 14394m | 3.6m/s | -52.0°C | 0% | 0hPa | 0V | 00:00:00 | 00:00:00 | 00:00:00 | |
| WB7NNF | 2026-09-01 17:53:21 | 48.04686 | -117.52482 | 22° | 68km/h | 14301m | 3.8m/s | -52.0°C | 0% | 0hPa | 0V | 00:00:00 | 00:00:00 | 00:00:00 | |
| WB7NNF | 2026-09-01 17:53:01 | 48.04354 | -117.52634 | 27° | 60km/h | 14205m | 3.5m/s | -52.1°C | 0% | 0hPa | 0V | 00:00:00 | 00:00:00 | 00:00:00 | |
| WB7NNF | 2026-09-01 17:52:40 | 48.04053 | -117.52806 | 32° | 60km/h | 14110m | 3.2m/s | -52.0°C | 0% | 0hPa | 0V | 00:00:00 | 00:00:00 | 00:00:00 | |
| WB7NNF | 2026-09-01 17:52:19 | 48.03734 | -117.52959 | 13° | 69km/h | 14024m | 4.2m/s | -52.3°C | 0% | 0hPa | 0V | 00:00:00 | 00:00:00 | 00:00:00 | |
| WB7NNF | 2026-09-01 17:51:59 | 48.03393 | -117.53093 | 22° | 62km/h | 13929m | 4.6m/s | -52.7°C | 0% | 0hPa | 0V | 00:00:00 | 00:00:00 | 00:00:00 | |
| WB7NNF | 2026-09-01 17:51:38 | 48.03090 | -117.53210 | 18° | 69km/h | 13842m | 3.9m/s | -53.0°C | 0% | 0hPa | 0V | 00:00:00 | 00:00:00 | 00:00:00 | |
| WB7NNF | 2026-09-01 17:51:18 | 48.02749 | -117.53336 | 19° | 68km/h | 13753m | 5.1m/s | -53.8°C | 0% | 0hPa | 0V | 00:00:00 | 00:00:00 | 00:00:00 | |
| WB7NNF | 2026-09-01 17:50:57 | 48.02432 | -117.53501 | 23° | 60km/h | 13665m | 4.8m/s | -54.4°C | 0% | 0hPa | 0V | 00:00:00 | 00:00:00 | 00:00:00 | |
| WB7NNF | 2026-09-01 17:50:37 | 48.02082 | -117.53701 | 17° | 78km/h | 13568m | 4.1m/s | -54.6°C | 0% | 0hPa | 0V | 00:00:00 | 00:00:00 | 00:00:00 | |
| WB7NNF | 2026-09-01 17:50:16 | 48.01746 | -117.53861 | 14° | 60km/h | 13474m | 5.4m/s | -55.0°C | 0% | 0hPa | 0V | 00:00:00 | 00:00:00 | 00:00:00 | |
| WB7NNF | 2026-09-01 17:49:56 | 48.01392 | -117.54018 | 17° | 86km/h | 13376m | 4.9m/s | -55.5°C | 0% | 0hPa | 0V | 00:00:00 | 00:00:00 | 00:00:00 | |
| WB7NNF | 2026-09-01 17:49:35 | 48.01041 | -117.54166 | 17° | 66km/h | 13284m | 2.8m/s | -55.3°C | 0% | 0hPa | 0V | 00:00:00 | 00:00:00 | 00:00:00 | |
| WB7NNF | 2026-09-01 17:49:15 | 48.00697 | -117.54279 | 10° | 58km/h | 13184m | 5.7m/s | -55.6°C | 0% | 0hPa | 0V | 00:00:00 | 00:00:00 | 00:00:00 | |
| WB7NNF | 2026-09-01 17:48:54 | 48.00384 | -117.54356 | 12° | 71km/h | 13090m | 2.9m/s | -55.5°C | 0% | 0hPa | 0V | 00:00:00 | 00:00:00 | 00:00:00 | |
| WB7NNF | 2026-09-01 17:48:34 | 48.00036 | -117.54458 | 8° | 68km/h | 12992m | 4.9m/s | -55.4°C | 0% | 0hPa | 0V | 00:00:00 | 00:00:00 | 00:00:00 | |
| WB7NNF | 2026-09-01 17:48:13 | 47.99690 | -117.54526 | 12° | 69km/h | 12899m | 4.9m/s | -55.7°C | 0% | 0hPa | 0V | 00:00:00 | 00:00:00 | 00:00:00 | |
| WB7NNF | 2026-09-01 17:47:53 | 47.99357 | -117.54565 | 6° | 62km/h | 12799m | 3.8m/s | -56.7°C | 0% | 0hPa | 0V | 00:00:00 | 00:00:00 | 00:00:00 | |
| WB7NNF | 2026-09-01 17:47:32 | 47.99026 | -117.54647 | 9° | 64km/h | 12703m | 4.9m/s | -57.3°C | 0% | 0hPa | 0V | 00:00:00 | 00:00:00 | 00:00:00 | |
| WB7NNF | 2026-09-01 17:47:11 | 47.98712 | -117.54730 | 15° | 60km/h | 12616m | 5.2m/s | -57.8°C | 0% | 0hPa | 0V | 00:00:00 | 00:00:00 | 00:00:00 | |
| WB7NNF | 2026-09-01 17:46:51 | 47.98371 | -117.54807 | 13° | 69km/h | 12521m | 3.4m/s | -58.0°C | 0% | 0hPa | 0V | 00:00:00 | 00:00:00 | 00:00:00 | |
| WB7NNF | 2026-09-01 17:46:30 | 47.98031 | -117.54838 | 8° | 64km/h | 12434m | 5.3m/s | -58.4°C | 0% | 0hPa | 0V | 00:00:00 | 00:00:00 | 00:00:00 | |
| WB7NNF | 2026-09-01 17:46:10 | 47.97643 | -117.54893 | 358° | 68km/h | 12331m | 6.0m/s | -58.0°C | 0% | 0hPa | 0V | 00:00:00 | 00:00:00 | 00:00:00 | |
| WB7NNF | 2026-09-01 17:45:49 | 47.97279 | -117.54898 | 360° | 78km/h | 12229m | 5.2m/s | -57.4°C | 0% | 0hPa | 0V | 00:00:00 | 00:00:00 | 00:00:00 | |
| WB7NNF | 2026-09-01 17:45:29 | 47.96883 | -117.54880 | 358° | 80km/h | 12132m | 5.8m/s | -57.0°C | 0% | 0hPa | 0V | 00:00:00 | 00:00:00 | 00:00:00 | |
| WB7NNF | 2026-09-01 17:45:08 | 47.96506 | -117.54866 | 3° | 69km/h | 12028m | 5.0m/s | -57.3°C | 0% | 0hPa | 0V | 00:00:00 | 00:00:00 | 00:00:00 | |
| WB7NNF | 2026-09-01 17:44:46 | 47.96125 | -117.54929 | 13° | 82km/h | 11929m | 3.7m/s | -57.2°C | 0% | 0hPa | 0V | 00:00:00 | 00:00:00 | 00:00:00 | |
| WB7NNF | 2026-09-01 17:44:25 | 47.95706 | -117.55006 | 11° | 78km/h | 11830m | 4.5m/s | -56.8°C | 0% | 0hPa | 0V | 00:00:00 | 00:00:00 | 00:00:00 | |
| WB7NNF | 2026-09-01 17:44:05 | 47.95301 | -117.55080 | 360° | 75km/h | 11735m | 4.4m/s | -56.1°C | 0% | 0hPa | 0V | 00:00:00 | 00:00:00 | 00:00:00 | |
| WB7NNF | 2026-09-01 17:43:44 | 47.94925 | -117.55129 | 356° | 95km/h | 11646m | 4.9m/s | -55.9°C | 0% | 0hPa | 0V | 00:00:00 | 00:00:00 | 00:00:00 | |
| WB7NNF | 2026-09-01 17:43:24 | 47.94480 | -117.55180 | 8° | 97km/h | 11538m | 3.9m/s | -56.1°C | 0% | 0hPa | 0V | 00:00:00 | 00:00:00 | 00:00:00 | |
| WB7NNF | 2026-09-01 17:43:03 | 47.94057 | -117.55208 | 7° | 57km/h | 11445m | 5.9m/s | -55.6°C | 0% | 0hPa | 0V | 00:00:00 | 00:00:00 | 00:00:00 | |
| WB7NNF | 2026-09-01 17:42:43 | 47.93666 | -117.55237 | 13° | 69km/h | 11336m | 5.0m/s | -54.8°C | 0% | 0hPa | 0V | 00:00:00 | 00:00:00 | 00:00:00 | |
| WB7NNF | 2026-09-01 17:42:00 | 47.92852 | -117.55134 | 359° | 77km/h | 11137m | 4.2m/s | -53.8°C | 0% | 0hPa | 0V | 00:00:00 | 00:00:00 | 00:00:00 | |
| WB7NNF | 2026-09-01 17:41:39 | 47.92484 | -117.55093 | 355° | 75km/h | 11046m | 3.6m/s | -53.2°C | 0% | 0hPa | 0V | 00:00:00 | 00:00:00 | 00:00:00 | |
| WB7NNF | 2026-09-01 17:41:19 | 47.92112 | -117.55063 | 361° | 80km/h | 10953m | 2.5m/s | -52.5°C | 0% | 0hPa | 0V | 00:00:00 | 00:00:00 | 00:00:00 | |
| WB7NNF | 2026-09-01 17:40:58 | 47.91756 | -117.55046 | 1° | 62km/h | 10857m | 4.1m/s | -51.7°C | 0% | 0hPa | 0V | 00:00:00 | 00:00:00 | 00:00:00 | |
| WB7NNF | 2026-09-01 17:40:38 | 47.91382 | -117.55073 | 26° | 62km/h | 10749m | 5.0m/s | -51.0°C | 0% | 0hPa | 0V | 00:00:00 | 00:00:00 | 00:00:00 | |
| WB7NNF | 2026-09-01 17:40:17 | 47.90995 | -117.55173 | 2° | 66km/h | 10634m | 4.8m/s | -50.1°C | 0% | 0hPa | 0V | 00:00:00 | 00:00:00 | 00:00:00 | |
| WB7NNF | 2026-09-01 17:39:57 | 47.90578 | -117.55244 | 6° | 77km/h | 10541m | 4.1m/s | -49.3°C | 0% | 0hPa | 0V | 00:00:00 | 00:00:00 | 00:00:00 | |
| WB7NNF | 2026-09-01 17:39:35 | 47.90170 | -117.55329 | 358° | 75km/h | 10452m | 4.0m/s | -48.6°C | 0% | 0hPa | 0V | 00:00:00 | 00:00:00 | 00:00:00 | |
| WB7NNF | 2026-09-01 17:39:15 | 47.89781 | -117.55404 | 5° | 86km/h | 10365m | 3.6m/s | -47.9°C | 0% | 0hPa | 0V | 00:00:00 | 00:00:00 | 00:00:00 | |
| WB7NNF | 2026-09-01 17:38:55 | 47.89388 | -117.55514 | 4° | 73km/h | 10267m | 4.8m/s | -47.1°C | 0% | 0hPa | 0V | 00:00:00 | 00:00:00 | 00:00:00 | |
| WB7NNF | 2026-09-01 17:38:34 | 47.89016 | -117.55626 | 20° | 75km/h | 10182m | 5.0m/s | -46.4°C | 0% | 0hPa | 0V | 00:00:00 | 00:00:00 | 00:00:00 | |
| WB7NNF | 2026-09-01 17:38:14 | 47.88632 | -117.55762 | 16° | 75km/h | 10070m | 6.0m/s | -45.5°C | 0% | 0hPa | 0V | 00:00:00 | 00:00:00 | 00:00:00 | |
| WB7NNF | 2026-09-01 17:37:53 | 47.88272 | -117.55909 | 24° | 88km/h | 9960m | 4.4m/s | -44.6°C | 0% | 0hPa | 0V | 00:00:00 | 00:00:00 | 00:00:00 | |
| WB7NNF | 2026-09-01 17:37:33 | 47.87892 | -117.56087 | 20° | 73km/h | 9865m | 5.9m/s | -43.7°C | 0% | 0hPa | 0V | 00:00:00 | 00:00:00 | 00:00:00 | |
| WB7NNF | 2026-09-01 17:37:12 | 47.87526 | -117.56277 | 20° | 88km/h | 9750m | 3.9m/s | -42.8°C | 0% | 0hPa | 0V | 00:00:00 | 00:00:00 | 00:00:00 | |
| WB7NNF | 2026-09-01 17:36:52 | 47.87154 | -117.56452 | 19° | 86km/h | 9648m | 4.0m/s | -42.0°C | 0% | 0hPa | 0V | 00:00:00 | 00:00:00 | 00:00:00 | |
| WB7NNF | 2026-09-01 17:36:31 | 47.86819 | -117.56622 | 14° | 68km/h | 9560m | 4.0m/s | -41.3°C | 0% | 0hPa | 0V | 00:00:00 | 00:00:00 | 00:00:00 | |
| WB7NNF | 2026-09-01 17:36:11 | 47.86452 | -117.56788 | 30° | 71km/h | 9472m | 3.8m/s | -40.7°C | 0% | 0hPa | 0V | 00:00:00 | 00:00:00 | 00:00:00 | |
| WB7NNF | 2026-09-01 17:35:50 | 47.86108 | -117.56949 | 19° | 78km/h | 9381m | 4.8m/s | -40.0°C | 0% | 0hPa | 0V | 00:00:00 | 00:00:00 | 00:00:00 | |
| WB7NNF | 2026-09-01 17:35:30 | 47.85774 | -117.57135 | 14° | 71km/h | 9267m | 5.6m/s | -39.1°C | 0% | 0hPa | 0V | 00:00:00 | 00:00:00 | 00:00:00 | |
| WB7NNF | 2026-09-01 17:35:09 | 47.85435 | -117.57325 | 25° | 78km/h | 9178m | 4.0m/s | -38.6°C | 0% | 0hPa | 0V | 00:00:00 | 00:00:00 | 00:00:00 | |
| WB7NNF | 2026-09-01 17:34:49 | 47.85062 | -117.57537 | 29° | 75km/h | 9086m | 3.8m/s | -37.8°C | 0% | 0hPa | 0V | 00:00:00 | 00:00:00 | 00:00:00 | |
| WB7NNF | 2026-09-01 17:34:28 | 47.84680 | -117.57742 | 19° | 84km/h | 8996m | 5.0m/s | -37.2°C | 0% | 0hPa | 0V | 00:00:00 | 00:00:00 | 00:00:00 | |
| WB7NNF | 2026-09-01 17:34:06 | 47.84285 | -117.57907 | 21° | 77km/h | 8898m | 3.4m/s | -36.4°C | 0% | 0hPa | 0V | 00:00:00 | 00:00:00 | 00:00:00 | |
| WB7NNF | 2026-09-01 17:33:41 | 47.83814 | -117.58051 | 18° | 86km/h | 8780m | 4.0m/s | -35.8°C | 0% | 0hPa | 0V | 00:00:00 | 00:00:00 | 00:00:00 | |
| WB7NNF | 2026-09-01 17:33:21 | 47.83394 | -117.58173 | 12° | 89km/h | 8686m | 5.1m/s | -35.2°C | 0% | 0hPa | 0V | 00:00:00 | 00:00:00 | 00:00:00 | |
| WB7NNF | 2026-09-01 17:33:00 | 47.82997 | -117.58301 | 17° | 77km/h | 8594m | 4.9m/s | -34.3°C | 0% | 0hPa | 0V | 00:00:00 | 00:00:00 | 00:00:00 | |
| WB7NNF | 2026-09-01 17:32:40 | 47.82580 | -117.58451 | 22° | 82km/h | 8498m | 4.2m/s | -33.7°C | 0% | 0hPa | 0V | 00:00:00 | 00:00:00 | 00:00:00 | |
| WB7NNF | 2026-09-01 17:32:19 | 47.82190 | -117.58579 | 14° | 84km/h | 8394m | 5.4m/s | -32.9°C | 0% | 0hPa | 0V | 00:00:00 | 00:00:00 | 00:00:00 | |
| WB7NNF | 2026-09-01 17:31:59 | 47.81780 | -117.58716 | 17° | 91km/h | 8299m | 5.0m/s | -32.3°C | 0% | 0hPa | 0V | 00:00:00 | 00:00:00 | 00:00:00 | |
| WB7NNF | 2026-09-01 17:31:38 | 47.81382 | -117.58849 | 11° | 75km/h | 8209m | 4.4m/s | -31.5°C | 0% | 0hPa | 0V | 00:00:00 | 00:00:00 | 00:00:00 | |
| WB7NNF | 2026-09-01 17:31:16 | 47.80984 | -117.58985 | 10° | 71km/h | 8113m | 4.1m/s | -30.7°C | 0% | 0hPa | 0V | 00:00:00 | 00:00:00 | 00:00:00 | |
| WB7NNF | 2026-09-01 17:30:55 | 47.80575 | -117.59172 | 27° | 75km/h | 8002m | 5.4m/s | -29.7°C | 0% | 0hPa | 0V | 00:00:00 | 00:00:00 | 00:00:00 | |
| WB7NNF | 2026-09-01 17:30:35 | 47.80158 | -117.59383 | 12° | 73km/h | 7904m | 4.9m/s | -29.4°C | 0% | 0hPa | 0V | 00:00:00 | 00:00:00 | 00:00:00 | |
| WB7NNF | 2026-09-01 17:30:13 | 47.79773 | -117.59599 | 14° | 78km/h | 7815m | 4.7m/s | -28.7°C | 0% | 0hPa | 0V | 00:00:00 | 00:00:00 | 00:00:00 | |
| WB7NNF | 2026-09-01 17:29:52 | 47.79397 | -117.59822 | 31° | 78km/h | 7726m | 4.0m/s | -28.2°C | 0% | 0hPa | 0V | 00:00:00 | 00:00:00 | 00:00:00 | |
| WB7NNF | 2026-09-01 17:29:31 | 47.79040 | -117.60043 | 28° | 64km/h | 7633m | 3.2m/s | -27.7°C | 0% | 0hPa | 0V | 00:00:00 | 00:00:00 | 00:00:00 | |
| WB7NNF | 2026-09-01 17:29:11 | 47.78711 | -117.60268 | 20° | 57km/h | 7546m | 2.7m/s | -27.1°C | 0% | 0hPa | 0V | 00:00:00 | 00:00:00 | 00:00:00 | |
| WB7NNF | 2026-09-01 17:28:50 | 47.78411 | -117.60477 | 29° | 71km/h | 7458m | 4.6m/s | -26.6°C | 0% | 0hPa | 0V | 00:00:00 | 00:00:00 | 00:00:00 | |
| WB7NNF | 2026-09-01 17:27:58 | 47.77688 | -117.60880 | 31° | 58km/h | 7221m | 3.9m/s | -24.9°C | 0% | 0hPa | 0V | 00:00:00 | 00:00:00 | 00:00:00 | |
| WB7NNF | 2026-09-01 17:27:36 | 47.77404 | -117.60995 | 22° | 60km/h | 7137m | 4.0m/s | -24.8°C | 0% | 0hPa | 0V | 00:00:00 | 00:00:00 | 00:00:00 | |
| WB7NNF | 2026-09-01 17:27:15 | 47.77127 | -117.61099 | 12° | 60km/h | 7053m | 4.5m/s | -24.1°C | 0% | 0hPa | 0V | 00:00:00 | 00:00:00 | 00:00:00 | |
| WB7NNF | 2026-09-01 17:26:34 | 47.76615 | -117.61316 | 14° | 47km/h | 6884m | 4.8m/s | -23.1°C | 0% | 0hPa | 0V | 00:00:00 | 00:00:00 | 00:00:00 | |
| WB7NNF | 2026-09-01 17:24:55 | 47.75516 | -117.61786 | 6° | 57km/h | 6391m | 3.5m/s | -19.3°C | 0% | 0hPa | 0V | 00:00:00 | 00:00:00 | 00:00:00 | |
| WB7NNF | 2026-09-01 17:24:07 | 47.74987 | -117.61996 | 36° | 31km/h | 6132m | 4.9m/s | -17.3°C | 0% | 0hPa | 0V | 00:00:00 | 00:00:00 | 00:00:00 | |
| WB7NNF | 2026-09-01 17:23:39 | 47.74742 | -117.62195 | 27° | 49km/h | 6012m | 2.9m/s | -16.4°C | 0% | 0hPa | 0V | 00:00:00 | 00:00:00 | 00:00:00 | |
| WB7NNF | 2026-09-01 17:23:19 | 47.74558 | -117.62346 | 24° | 31km/h | 5906m | 4.1m/s | -15.8°C | 0% | 0hPa | 0V | 00:00:00 | 00:00:00 | 00:00:00 |